航空気象通報

ウインドサーファーのための航空気象通報による風予報です。

9/30-10/1の航空気象通報(国内、海外)

2008年09月30日 23時45分14秒 | TAF
羽田空港
TAF RJTT 300850Z 301812 02010KT 4000 -RA FEW008 SCT012 BKN025
TEMPO 1803 3000 RA BR FEW006 BKN008 BKN015
BECMG 0306 8000 NSW
日本時間1日03-21時:020度から10ノットの風


那覇空港
TAF ROAH 300842Z 301812 26012KT 9999 FEW015 BKN020
BECMG 0003 31014KT
TEMPO 0006 4000 SHRA FEW008 BKN020 FEW025CB
日本時間1日03-09時:260度から12ノットの風
09-12時:風が変化
12-21時:310度から14ノットの風
、但し、09-15時:一時、

マウイのカフルイ空港
PHOG 301132Z 301212 05008KT P6SM VCSH SCT020 BKN050
FM2000 03012G20KT P6SM SCT020 SCT050
FM0600 05008KT P6SM SCT020 SCT050
ハワイ時間30日02-10時:050度から8ノットの風

10-20時:030度から12ノット、突風20ノット
20時-1日02時:050度から8ノットの風


サイパン空港
PGSN 301122Z 301212 07006KT P6SM VCSH SCT020 SCT080
マリアナ時間30日22時-1日22時:070度から6ノットの風

コメント

9/29-30の航空気象通報(国内、海外)

2008年09月29日 23時21分14秒 | TAF
羽田空港
TAF RJTT 290840Z 291812 02008KT 9999 FEW008 BKN015 BKN030
TEMPO 1824 4000 -RA BR
日本時間30日03-21時:020度から8ノットの風
、但し、03-09時:一時、

那覇空港
TAF ROAH 290840Z 291812 18016KT 9999 FEW015 SCT020
日本時間30日03-21時:180度から16ノットの風


マウイのカフルイ空港
PHOG 291135Z 291212 VRB03KT P6SM SCT050
FM2000 01012KT P6SM SCT050
FM0600 02008KT P6SM VCSH SCT025 BKN035
ハワイ時間29日02-10時:風向不定3ノットの風
10-20時:010度から12ノットの風

20時-30日02時:020度から8ノットの風


サイパン空港
PGSN 291120Z 291212 10006KT P6SM VCSH SCT018 SCT050
TEMPO 1215 11012G20KT -SHRA SCT016CB BKN030
マリアナ時間29日22時-30日22時:100度から6ノットの風

但し、29日22時-30日01時:一時、110度から12ノット、突風20ノット、
コメント

9/28-29の航空気象通報(国内、海外)

2008年09月28日 21時53分41秒 | TAF
羽田空港
TAF RJTT 280844Z 281812 36010KT 9999 -RA FEW015 BKN030 BKN050
TEMPO 0312 4000 -RA BR
日本時間29日03-21時:360度から10ノットの風


那覇空港
TAF ROAH 280848Z 281812 16014KT 9999 FEW015 SCT025
TEMPO 1824 4000 SHRA
日本時間29日03-21時:160度から14ノットの風
、03-09時:一時、

マウイのカフルイ空港
PHOG 281135Z 281212 VRB06KT P6SM FEW050 BKN200
FM2100 05012KT P6SM SCT050 BKN200
FM0500 VRB05KT P6SM FEW050 BKN200
ハワイ時間28日02-11時:風向不定6ノットの風
11-19時:050度から12ノットの風
19時-29日02時:風向不定5ノットの風


サイパン空港
PGSN 281120Z 281212 10008KT P6SM VCSH SCT020CB SCT040
マリアナ時間28日22時-29日22時:100度から8ノットの風

コメント

9/27-28の航空気象通報(国内、海外)

2008年09月27日 19時32分37秒 | TAF
羽田空港
TAF RJTT 270836Z 271812 02010KT 9999 FEW030 SCT050
BECMG 0003 08008KT
日本時間28日03-09時:020度から10ノットの風
09-12時:風が変化
12-21時:080度から8ノットの風


那覇空港
TAF ROAH 270851Z 271812 14014KT 9999 FEW010 BKN025
日本時間28日03-21時:140度から14ノットの風


マウイのカフルイ空港
PHOG 271135Z 271212 VRB05KT P6SM FEW050 SCT200
FM2200 05012KT P6SM SCT050 SCT200
FM0600 VRB05KT P6SM SKC
ハワイ時間27日02-12時:風向不定5ノットの風
12-20時:050度から12ノットの風
20時-28日02時:風向不定5ノットの風


サイパン空港
PGSN 271121Z 271212 09007KT P6SM VCSH SCT020 SCT040
マリアナ時間27日22時-28日22時:090度から7ノットの風
コメント

9/26-27の航空気象通報(国内、海外)

2008年09月26日 23時52分37秒 | TAF
羽田空港
TAF RJTT 260842Z 261812 35016KT 9999 FEW030
BECMG 0306 13010KT
日本時間27日03-12時:350度から16ノットの風
12-15時:風が変化
15-21時:130度から10ノットの風


那覇空港
TAF ROAH 260843Z 261812 06014KT 9999 FEW015 SCT025
日本時間27日03-21時:060度から14ノットの風


マウイのカフルイ空港
PPHOG 261138Z 261212 13005KT P6SM SCT040 BKN200
FM1800 03008KT P6SM FEW040
FM2100 04015G22KT P6SM SCT040 SCT070
FM0400 06010KT P6SM SCT050
ハワイ時間26日02-08時:130度から5ノットの風

08-11時:030度から8ノットの風
11-18時:040度から15ノット、突風22ノット
18時-27日02時:060度から10ノットの風


サイパン空港
PGSN 261127Z 261212 09010KT P6SM VCSH SCT020 SCT120
マリアナ時間26日22時-27日22時:090度から10ノットの風

コメント